createdAt,value
2022-09-23T00:02:09.298Z,101271.84
2022-09-23T00:04:35.692Z,101273.19
2022-09-23T00:07:02.044Z,101275.34
2022-09-23T00:09:29.724Z,101271.28
2022-09-23T00:11:56.256Z,101268.28
2022-09-23T00:14:22.636Z,101265.03
2022-09-23T00:16:49.018Z,101270.16
2022-09-23T00:19:15.427Z,101268.03
2022-09-23T00:21:41.819Z,101261.13
2022-09-23T00:24:08.220Z,101260.44
2022-09-23T00:26:35.897Z,101260.16
2022-09-23T00:29:02.320Z,101256.91
2022-09-23T00:31:28.659Z,101255.63
2022-09-23T00:33:55.942Z,101253.91
2022-09-23T00:36:22.949Z,101253.16
2022-09-23T00:38:49.327Z,101248.50
2022-09-23T00:41:15.753Z,101254.81
2022-09-23T00:43:46.296Z,101242.72
2022-09-23T00:46:17.450Z,101236.56
2022-09-23T00:48:44.897Z,101245.72
2022-09-23T00:51:15.899Z,101246.44
2022-09-23T00:53:42.332Z,101241.22
2022-09-23T00:56:10.399Z,101237.50
2022-09-23T00:58:40.597Z,101237.25
2022-09-23T01:01:08.918Z,101238.78
2022-09-23T01:03:35.545Z,101239.41
2022-09-23T01:06:02.083Z,101227.44
2022-09-23T01:08:28.901Z,101226.91
2022-09-23T01:11:03.810Z,101229.69
2022-09-23T01:13:41.749Z,101228.69
2022-09-23T01:16:18.575Z,101225.91
2022-09-23T01:18:51.325Z,101220.31
2022-09-23T01:21:31.563Z,101225.66
2022-09-23T01:24:23.791Z,101212.97
2022-09-23T01:27:01.438Z,101209.94
2022-09-23T01:30:15.614Z,101208.47
2022-09-23T01:33:00.811Z,101197.16
2022-09-23T01:35:34.800Z,101204.50
2022-09-23T01:38:13.502Z,101203.72
2022-09-23T01:40:48.901Z,101196.78
2022-09-23T01:43:21.387Z,101202.28
2022-09-23T01:45:49.195Z,101197.03
2022-09-23T01:48:23.629Z,101200.47
2022-09-23T01:50:54.485Z,101194.09
2022-09-23T01:53:26.729Z,101191.25
2022-09-23T01:55:56.647Z,101195.19
2022-09-23T01:58:28.008Z,101189.03
2022-09-23T02:01:00.294Z,101187.34
2022-09-23T02:03:32.690Z,101185.22
2022-09-23T02:06:03.194Z,101182.72
2022-09-23T02:08:33.672Z,101180.13
2022-09-23T02:11:04.888Z,101177.13
2022-09-23T02:13:38.536Z,101180.94
2022-09-23T02:16:10.612Z,101172.88
2022-09-23T02:18:44.252Z,101174.28
2022-09-23T02:21:10.650Z,101176.25
2022-09-23T02:23:43.142Z,101170.72
2022-09-23T02:26:17.685Z,101168.53
2022-09-23T02:28:51.707Z,101163.78
2022-09-23T02:31:25.588Z,101162.97
2022-09-23T02:33:57.359Z,101169.84
2022-09-23T02:36:29.308Z,101153.34
2022-09-23T02:39:01.137Z,101167.38
2022-09-23T02:41:32.728Z,101160.16
2022-09-23T02:44:06.004Z,101145.50
2022-09-23T02:46:33.223Z,101151.88
2022-09-23T02:49:05.682Z,101150.56
2022-09-23T02:51:33.892Z,101152.69
2022-09-23T02:54:01.127Z,101142.97
2022-09-23T02:56:27.479Z,101147.13
2022-09-23T02:58:55.028Z,101148.88
2022-09-23T03:01:33.256Z,101150.38
2022-09-23T03:04:10.214Z,101149.25
2022-09-23T03:06:46.459Z,101141.16
2022-09-23T03:09:21.929Z,101149.09
2022-09-23T03:11:55.588Z,101139.03
2022-09-23T03:14:29.325Z,101142.75
2022-09-23T03:16:59.803Z,101142.72
2022-09-23T03:19:32.298Z,101140.63
2022-09-23T03:22:02.439Z,101135.56
2022-09-23T03:24:30.688Z,101142.97
2022-09-23T03:27:00.878Z,101132.91
2022-09-23T03:29:28.054Z,101126.69
2022-09-23T03:31:56.174Z,101124.44
2022-09-23T03:34:26.584Z,101123.81
2022-09-23T03:36:56.654Z,101117.56
2022-09-23T03:39:31.325Z,101119.41
2022-09-23T03:42:02.044Z,101112.72
2022-09-23T03:44:29.292Z,101110.19
2022-09-23T03:46:58.621Z,101108.84
2022-09-23T03:49:27.834Z,101114.72
2022-09-23T03:51:56.005Z,101111.25
2022-09-23T03:54:22.666Z,101113.81
2022-09-23T03:56:49.009Z,101109.44
2022-09-23T03:59:15.771Z,101114.34
2022-09-23T04:01:42.466Z,101105.91
2022-09-23T04:04:08.849Z,101101.06
2022-09-23T04:06:35.596Z,101105.00
2022-09-23T04:09:03.490Z,101104.00
2022-09-23T04:11:29.904Z,101092.88
2022-09-23T04:13:56.657Z,101087.28
2022-09-23T04:16:23.301Z,101095.09
2022-09-23T04:18:49.768Z,101088.28
2022-09-23T04:21:16.194Z,101077.28
2022-09-23T04:23:42.647Z,101078.50
2022-09-23T04:26:10.313Z,101074.84
2022-09-23T04:28:36.658Z,101073.69
2022-09-23T04:31:04.582Z,101076.66
2022-09-23T04:33:31.237Z,101070.91
2022-09-23T04:35:57.579Z,101062.34
2022-09-23T04:38:24.487Z,101073.31
2022-09-23T04:40:50.966Z,101081.16
2022-09-23T04:43:19.277Z,101066.75
2022-09-23T04:45:45.660Z,101073.97
2022-09-23T04:48:12.167Z,101063.91
2022-09-23T04:50:38.631Z,101069.88
2022-09-23T04:53:05.388Z,101071.38
2022-09-23T04:55:31.917Z,101070.22
2022-09-23T04:57:58.343Z,101070.09
2022-09-23T05:00:26.204Z,101071.84
2022-09-23T05:02:52.556Z,101059.84
2022-09-23T05:05:19.024Z,101058.50
2022-09-23T05:07:45.452Z,101058.69
2022-09-23T05:10:11.811Z,101061.41
2022-09-23T05:12:38.172Z,101072.94
2022-09-23T05:15:05.367Z,101069.34
2022-09-23T05:17:33.051Z,101066.16
2022-09-23T05:19:59.740Z,101070.41
2022-09-23T05:22:26.619Z,101070.97
2022-09-23T05:24:53.261Z,101073.63
2022-09-23T05:27:19.621Z,101074.63
2022-09-23T05:29:46.535Z,101066.78
2022-09-23T05:32:13.136Z,101063.06
2022-09-23T05:34:41.103Z,101055.72
2022-09-23T05:37:07.470Z,101060.78
2022-09-23T05:39:33.863Z,101053.38
2022-09-23T05:42:00.443Z,101055.69
2022-09-23T05:44:26.844Z,101054.53
2022-09-23T05:46:53.328Z,101049.78
2022-09-23T05:49:19.705Z,101049.56
2022-09-23T05:51:47.403Z,101056.06
2022-09-23T05:54:13.776Z,101055.28
2022-09-23T05:56:40.137Z,101059.09
2022-09-23T05:59:06.645Z,101059.59
2022-09-23T06:01:35.480Z,101063.09
2022-09-23T06:04:04.302Z,101066.31
2022-09-23T06:06:32.258Z,101059.75
2022-09-23T06:09:00.519Z,101063.91
2022-09-23T06:11:29.215Z,101059.63
2022-09-23T06:13:57.108Z,101053.00
2022-09-23T06:16:23.500Z,101057.78
2022-09-23T06:18:49.924Z,101059.44
2022-09-23T06:21:17.447Z,101065.00
2022-09-23T06:23:44.943Z,101060.13
2022-09-23T06:26:14.374Z,101059.63
2022-09-23T06:28:42.983Z,101066.13
2022-09-23T06:31:13.485Z,101056.78
2022-09-23T06:33:40.524Z,101061.06
2022-09-23T06:36:08.106Z,101057.34
2022-09-23T06:38:34.867Z,101053.41
2022-09-23T06:41:02.022Z,101050.44
2022-09-23T06:43:30.426Z,101061.28
2022-09-23T06:45:58.372Z,101063.88
2022-09-23T06:48:26.028Z,101054.31
2022-09-23T06:50:52.409Z,101053.75
2022-09-23T06:53:19.437Z,101053.59
2022-09-23T06:55:45.800Z,101054.41
2022-09-23T06:58:12.150Z,101061.75
2022-09-23T07:00:39.831Z,101048.97
2022-09-23T07:03:07.090Z,101059.69
2022-09-23T07:05:33.522Z,101060.41
2022-09-23T07:08:00.002Z,101062.88
2022-09-23T07:10:26.699Z,101056.28
2022-09-23T07:12:53.221Z,101051.03
2022-09-23T07:15:19.551Z,101053.31
2022-09-23T07:17:47.218Z,101054.63
2022-09-23T07:20:13.586Z,101054.13
2022-09-23T07:22:39.927Z,101048.44
2022-09-23T07:25:06.760Z,101045.84
2022-09-23T07:27:33.163Z,101046.41
2022-09-23T07:29:59.506Z,101046.72
2022-09-23T07:32:25.955Z,101053.31
2022-09-23T07:34:53.883Z,101048.97
2022-09-23T07:37:20.235Z,101057.50
2022-09-23T07:39:46.615Z,101065.78
2022-09-23T07:42:12.984Z,101059.09
2022-09-23T07:44:39.995Z,101060.09
2022-09-23T07:47:06.485Z,101054.72
2022-09-23T07:49:35.109Z,101054.94
2022-09-23T07:52:03.355Z,101044.09
2022-09-23T07:54:29.757Z,101042.59
2022-09-23T07:56:56.232Z,101043.06
2022-09-23T07:59:22.667Z,101036.81
2022-09-23T08:01:51.619Z,101034.34
2022-09-23T08:04:20.687Z,101044.44
2022-09-23T08:06:49.504Z,101044.50
2022-09-23T08:09:19.292Z,101040.88
2022-09-23T08:11:46.895Z,101041.94
2022-09-23T08:14:15.265Z,101044.66
2022-09-23T08:16:42.512Z,101039.00
2022-09-23T08:19:08.943Z,101035.13
2022-09-23T08:21:35.350Z,101039.97
2022-09-23T08:24:02.250Z,101043.88
2022-09-23T08:26:29.999Z,101037.50
2022-09-23T08:28:56.333Z,101041.00
2022-09-23T08:31:23.267Z,101048.66
2022-09-23T08:33:54.020Z,101048.84
2022-09-23T08:36:20.375Z,101045.31
2022-09-23T08:38:46.724Z,101043.41
2022-09-23T08:41:19.956Z,101040.63
2022-09-23T08:43:51.927Z,101046.94
2022-09-23T08:46:26.423Z,101042.72
2022-09-23T08:48:54.034Z,101047.78
2022-09-23T08:51:25.624Z,101046.69
2022-09-23T08:53:52.285Z,101047.72
2022-09-23T08:56:22.253Z,101048.81
2022-09-23T08:58:59.674Z,101045.09
2022-09-23T09:01:34.556Z,101039.44
2022-09-23T09:04:03.037Z,101040.72
2022-09-23T09:06:45.557Z,101040.09
2022-09-23T09:09:26.631Z,101030.53
2022-09-23T09:11:59.470Z,101031.59
2022-09-23T09:14:35.705Z,101035.63
2022-09-23T09:17:05.208Z,101034.72
2022-09-23T09:19:52.485Z,101040.69
2022-09-23T09:22:21.195Z,101043.13
2022-09-23T09:24:49.190Z,101030.56
2022-09-23T09:27:15.807Z,101029.66
2022-09-23T09:29:49.930Z,101017.13
2022-09-23T09:32:30.236Z,101019.44
2022-09-23T09:35:01.119Z,101014.38
2022-09-23T09:37:32.879Z,101015.22
2022-09-23T09:39:59.558Z,101006.66
2022-09-23T09:42:30.544Z,101011.09
2022-09-23T09:45:02.086Z,101006.84
2022-09-23T09:47:40.468Z,101007.63
2022-09-23T09:50:08.892Z,101001.41
2022-09-23T09:52:42.489Z,101002.44
2022-09-23T09:55:23.741Z,100999.97
2022-09-23T09:57:54.219Z,100991.75
2022-09-23T10:00:42.926Z,100993.31
2022-09-23T10:03:25.282Z,100991.50
2022-09-23T10:05:53.256Z,100987.34
2022-09-23T10:08:26.927Z,100984.13
2022-09-23T10:10:59.405Z,100983.91
2022-09-23T10:13:27.009Z,100980.06
2022-09-23T10:15:55.829Z,100973.13
2022-09-23T10:18:29.049Z,100976.91
2022-09-23T10:21:02.280Z,100971.03
2022-09-23T10:23:30.240Z,100968.72
2022-09-23T10:25:58.399Z,100964.59
2022-09-23T10:28:39.714Z,100964.06
2022-09-23T10:31:11.218Z,100966.41
2022-09-23T10:33:40.714Z,100966.66
2022-09-23T10:36:09.941Z,100962.41
2022-09-23T10:38:36.534Z,100957.03
2022-09-23T10:41:04.712Z,100957.63
2022-09-23T10:43:39.656Z,100953.84
2022-09-23T10:46:15.521Z,100949.50
2022-09-23T10:48:53.839Z,100950.13
2022-09-23T10:51:27.909Z,100954.00
2022-09-23T10:54:02.759Z,100955.09
2022-09-23T10:56:36.964Z,100951.94
2022-09-23T10:59:26.897Z,100947.25
2022-09-23T11:02:05.677Z,100941.97
2022-09-23T11:05:03.062Z,100953.72
2022-09-23T11:07:37.091Z,100945.75
2022-09-23T11:10:46.265Z,100936.69
2022-09-23T11:13:28.116Z,100938.69
2022-09-23T11:16:06.477Z,100930.88
2022-09-23T11:18:48.984Z,100927.91
2022-09-23T11:21:31.126Z,100917.34
2022-09-23T11:24:14.756Z,100923.59
2022-09-23T11:26:49.438Z,100920.25
2022-09-23T11:29:33.061Z,100920.34
2022-09-23T11:32:17.574Z,100917.44
2022-09-23T11:35:00.361Z,100906.19
2022-09-23T11:37:31.912Z,100914.16
2022-09-23T11:40:03.733Z,100911.38
2022-09-23T11:42:35.325Z,100907.03
2022-09-23T11:45:08.274Z,100899.16
2022-09-23T11:47:40.811Z,100899.88
2022-09-23T11:50:18.365Z,100899.09
2022-09-23T11:52:49.314Z,100895.31
2022-09-23T11:55:22.732Z,100888.75
2022-09-23T11:57:52.736Z,100887.94
2022-09-23T12:00:21.373Z,100889.19
2022-09-23T12:03:05.389Z,100891.00
2022-09-23T12:05:38.363Z,100890.88
2022-09-23T12:08:14.941Z,100884.75
2022-09-23T12:10:51.459Z,100873.16
2022-09-23T12:13:23.678Z,100877.28
2022-09-23T12:16:03.604Z,100882.94
2022-09-23T12:18:43.209Z,100871.78
2022-09-23T12:21:50.650Z,100867.09
2022-09-23T12:24:46.851Z,100863.78
2022-09-23T12:27:22.983Z,100863.63
2022-09-23T12:29:54.472Z,100864.13
2022-09-23T12:32:21.435Z,100858.81
2022-09-23T12:34:50.783Z,100858.09
2022-09-23T12:37:26.132Z,100861.06
2022-09-23T12:39:53.765Z,100863.38
2022-09-23T12:42:22.869Z,100855.19
2022-09-23T12:44:49.535Z,100845.78
2022-09-23T12:47:46.263Z,100851.38
2022-09-23T12:50:49.451Z,100846.25
2022-09-23T12:53:52.823Z,100853.41
2022-09-23T12:56:22.872Z,100845.81
2022-09-23T12:59:00.508Z,100837.91
2022-09-23T13:01:27.974Z,100838.63
2022-09-23T13:03:56.411Z,100835.16
2022-09-23T13:06:22.848Z,100830.09
2022-09-23T13:08:49.598Z,100829.72
2022-09-23T13:11:22.796Z,100829.44
2022-09-23T13:13:50.315Z,100824.44
2022-09-23T13:16:25.198Z,100827.91
2022-09-23T13:18:53.150Z,100823.94
2022-09-23T13:22:12.399Z,100824.19
2022-09-23T13:24:44.844Z,100828.66
2022-09-23T13:27:21.431Z,100815.78
2022-09-23T13:29:53.548Z,100817.16
2022-09-23T13:32:22.535Z,100813.63
2022-09-23T13:34:57.322Z,100812.78
2022-09-23T13:37:28.120Z,100810.31
2022-09-23T13:40:07.152Z,100808.88
2022-09-23T13:42:37.213Z,100811.13
2022-09-23T13:45:05.145Z,100807.09
2022-09-23T13:47:34.598Z,100801.50
2022-09-23T13:50:02.169Z,100799.81
2022-09-23T13:52:31.484Z,100800.63
2022-09-23T13:54:59.356Z,100799.63
2022-09-23T13:57:27.721Z,100804.81
2022-09-23T13:59:54.090Z,100806.59
2022-09-23T14:02:20.542Z,100809.03
2022-09-23T14:04:47.074Z,100800.63
2022-09-23T14:07:16.451Z,100809.72
2022-09-23T14:09:46.766Z,100798.97
2022-09-23T14:12:15.594Z,100789.72
2022-09-23T14:14:42.817Z,100783.59
2022-09-23T14:17:17.097Z,100775.78
2022-09-23T14:19:43.728Z,100780.59
2022-09-23T14:22:22.423Z,100788.22
2022-09-23T14:24:49.805Z,100782.72
2022-09-23T14:27:20.276Z,100784.66
2022-09-23T14:29:48.356Z,100783.63
2022-09-23T14:32:17.560Z,100776.03
2022-09-23T14:34:46.498Z,100775.81
2022-09-23T14:37:21.553Z,100786.56
2022-09-23T14:39:53.447Z,100781.19
2022-09-23T14:42:23.440Z,100777.53
2022-09-23T14:44:49.916Z,100769.69
2022-09-23T14:47:16.429Z,100777.13
2022-09-23T14:49:47.263Z,100765.22
2022-09-23T14:52:13.668Z,100764.63
2022-09-23T14:54:44.913Z,100777.66
2022-09-23T14:57:27.067Z,100774.41
2022-09-23T14:59:55.236Z,100773.59
2022-09-23T15:02:32.363Z,100773.59
2022-09-23T15:05:18.491Z,100764.09
2022-09-23T15:07:49.380Z,100759.00
2022-09-23T15:10:19.578Z,100759.78
2022-09-23T15:12:47.423Z,100756.19
2022-09-23T15:15:15.533Z,100750.78
2022-09-23T15:17:42.161Z,100753.66
2022-09-23T15:20:19.780Z,100751.16
2022-09-23T15:22:47.861Z,100749.06
2022-09-23T15:25:17.920Z,100747.34
2022-09-23T15:27:58.305Z,100749.91
2022-09-23T15:30:24.742Z,100748.41
2022-09-23T15:32:51.106Z,100744.06
2022-09-23T15:35:19.717Z,100749.03
2022-09-23T15:37:48.278Z,100742.59
2022-09-23T15:40:18.570Z,100738.16
2022-09-23T15:42:46.419Z,100741.88
2022-09-23T15:45:14.121Z,100736.50
2022-09-23T15:47:40.647Z,100737.66
2022-09-23T15:50:07.786Z,100730.56
2022-09-23T15:52:34.147Z,100730.78
2022-09-23T15:55:00.576Z,100726.38
2022-09-23T15:57:26.969Z,100719.34
2022-09-23T15:59:53.429Z,100730.09
2022-09-23T16:02:23.612Z,100730.88
2022-09-23T16:04:50.098Z,100732.81
2022-09-23T16:07:16.498Z,100720.53
2022-09-23T16:09:42.873Z,100726.72
2022-09-23T16:12:11.363Z,100724.00
2022-09-23T16:14:37.723Z,100719.63
2022-09-23T16:17:04.102Z,100726.66
2022-09-23T16:19:31.815Z,100724.63
2022-09-23T16:21:58.238Z,100724.41
2022-09-23T16:24:28.058Z,100734.63
2022-09-23T16:26:54.968Z,100732.31
2022-09-23T16:29:21.358Z,100727.16
2022-09-23T16:31:47.797Z,100727.88
2022-09-23T16:34:14.281Z,100724.94
2022-09-23T16:36:43.264Z,100722.81
2022-09-23T16:39:12.472Z,100719.50
2022-09-23T16:41:39.564Z,100721.41
2022-09-23T16:44:07.074Z,100723.06
2022-09-23T16:46:34.469Z,100722.47
2022-09-23T16:49:01.083Z,100723.88
2022-09-23T16:51:30.149Z,100727.38
2022-09-23T16:53:58.797Z,100721.66
2022-09-23T16:56:28.723Z,100714.38
2022-09-23T16:58:55.785Z,100719.63
2022-09-23T17:01:23.712Z,100721.03
2022-09-23T17:03:50.319Z,100731.19
2022-09-23T17:06:16.963Z,100717.63
2022-09-23T17:08:43.789Z,100722.38
2022-09-23T17:11:11.493Z,100718.41
2022-09-23T17:13:37.926Z,100712.81
2022-09-23T17:16:04.671Z,100719.47
2022-09-23T17:18:31.146Z,100714.22
2022-09-23T17:20:59.463Z,100708.59
2022-09-23T17:23:26.116Z,100705.78
2022-09-23T17:25:52.763Z,100709.81
2022-09-23T17:28:20.672Z,100713.88
2022-09-23T17:30:47.059Z,100708.63
2022-09-23T17:33:13.470Z,100709.78
2022-09-23T17:35:40.004Z,100712.19
2022-09-23T17:38:06.357Z,100712.28
2022-09-23T17:40:32.912Z,100705.38
2022-09-23T17:42:59.447Z,100709.97
2022-09-23T17:45:27.171Z,100710.66
2022-09-23T17:47:53.537Z,100713.97
2022-09-23T17:50:19.969Z,100710.88
2022-09-23T17:52:46.372Z,100719.84
2022-09-23T17:55:12.967Z,100708.88
2022-09-23T17:57:39.303Z,100713.97
2022-09-23T18:00:06.906Z,100709.38
2022-09-23T18:02:34.729Z,100708.09
2022-09-23T18:05:01.125Z,100709.19
2022-09-23T18:07:27.476Z,100708.69
2022-09-23T18:09:53.834Z,100712.19
2022-09-23T18:12:20.179Z,100707.91
2022-09-23T18:14:47.876Z,100709.34
2022-09-23T18:17:14.409Z,100707.09
2022-09-23T18:19:42.073Z,100704.59
2022-09-23T18:22:08.426Z,100712.59
2022-09-23T18:24:34.950Z,100714.53
2022-09-23T18:27:01.703Z,100715.06
2022-09-23T18:29:28.191Z,100714.94
2022-09-23T18:31:54.757Z,100721.28
2022-09-23T18:34:21.594Z,100711.56
2022-09-23T18:36:49.260Z,100708.44
2022-09-23T18:39:15.897Z,100713.66
2022-09-23T18:41:42.249Z,100708.53
2022-09-23T18:44:09.242Z,100713.06
2022-09-23T18:46:35.875Z,100711.91
2022-09-23T18:49:02.417Z,100706.06
2022-09-23T18:51:36.682Z,100699.06
2022-09-23T18:54:06.105Z,100707.13
2022-09-23T18:56:38.297Z,100712.19
2022-09-23T18:59:05.859Z,100706.41
2022-09-23T19:01:32.978Z,100711.09
2022-09-23T19:04:01.191Z,100707.06
2022-09-23T19:06:28.984Z,100710.59
2022-09-23T19:08:55.423Z,100710.25
2022-09-23T19:11:23.781Z,100698.56
2022-09-23T19:13:53.337Z,100697.03
2022-09-23T19:16:19.725Z,100699.41
2022-09-23T19:18:46.460Z,100703.84
2022-09-23T19:21:14.458Z,100699.13
2022-09-23T19:23:45.488Z,100703.03
2022-09-23T19:26:13.303Z,100701.25
2022-09-23T19:28:41.000Z,100698.19
2022-09-23T19:31:11.562Z,100707.78
2022-09-23T19:33:38.213Z,100701.28
2022-09-23T19:36:04.935Z,100693.81
2022-09-23T19:38:31.280Z,100694.56
2022-09-23T19:40:57.675Z,100701.44
2022-09-23T19:43:24.042Z,100686.75
2022-09-23T19:45:54.455Z,100700.97
2022-09-23T19:48:20.967Z,100700.50
2022-09-23T19:50:47.979Z,100681.91
2022-09-23T19:53:15.172Z,100689.75
2022-09-23T19:55:41.562Z,100683.06
2022-09-23T19:58:08.914Z,100682.59
2022-09-23T20:00:35.325Z,100679.56
2022-09-23T20:03:03.079Z,100672.81
2022-09-23T20:05:29.419Z,100672.56
2022-09-23T20:07:56.186Z,100668.91
2022-09-23T20:10:22.690Z,100672.38
2022-09-23T20:12:49.063Z,100671.03
2022-09-23T20:15:15.903Z,100656.41
2022-09-23T20:17:42.510Z,100660.19
2022-09-23T20:20:12.910Z,100650.75
2022-09-23T20:22:39.256Z,100655.22
2022-09-23T20:25:06.927Z,100645.72
2022-09-23T20:27:33.254Z,100647.31
2022-09-23T20:29:59.686Z,100643.50
2022-09-23T20:32:26.416Z,100640.66
2022-09-23T20:34:52.824Z,100643.97
2022-09-23T20:37:21.357Z,100644.28
2022-09-23T20:39:48.048Z,100641.84
2022-09-23T20:42:15.509Z,100640.75
2022-09-23T20:44:42.863Z,100644.84
2022-09-23T20:47:09.470Z,100641.00
2022-09-23T20:49:35.830Z,100646.28
2022-09-23T20:52:02.741Z,100643.50
2022-09-23T20:54:30.462Z,100646.75
2022-09-23T20:56:56.896Z,100646.13
2022-09-23T20:59:23.273Z,100641.44
2022-09-23T21:01:49.676Z,100637.19
2022-09-23T21:04:16.389Z,100642.09
2022-09-23T21:06:42.745Z,100646.13
2022-09-23T21:09:09.129Z,100640.19
2022-09-23T21:11:36.807Z,100638.50
2022-09-23T21:14:03.223Z,100642.44
2022-09-23T21:16:30.215Z,100634.66
2022-09-23T21:18:57.529Z,100632.50
2022-09-23T21:21:23.972Z,100631.59
2022-09-23T21:23:50.864Z,100624.38
2022-09-23T21:26:19.324Z,100626.06
2022-09-23T21:28:48.412Z,100631.38
2022-09-23T21:31:16.716Z,100621.91
2022-09-23T21:33:43.072Z,100625.56
2022-09-23T21:36:09.711Z,100627.09
2022-09-23T21:38:36.682Z,100630.63
2022-09-23T21:41:05.763Z,100623.53
2022-09-23T21:43:33.764Z,100626.47
2022-09-23T21:46:03.539Z,100634.31
2022-09-23T21:48:31.526Z,100626.75
2022-09-23T21:50:59.727Z,100629.91
2022-09-23T21:53:27.374Z,100631.19
2022-09-23T21:56:00.846Z,100628.31
2022-09-23T21:58:27.750Z,100634.44
2022-09-23T22:00:54.162Z,100627.50
2022-09-23T22:03:21.876Z,100626.69
2022-09-23T22:05:48.286Z,100620.59
2022-09-23T22:08:14.617Z,100626.88
2022-09-23T22:10:40.989Z,100626.47
2022-09-23T22:13:12.560Z,100633.97
2022-09-23T22:15:39.332Z,100631.69
2022-09-23T22:18:05.775Z,100621.44
2022-09-23T22:20:33.776Z,100622.84
2022-09-23T22:23:00.166Z,100621.63
2022-09-23T22:25:26.740Z,100627.03
2022-09-23T22:27:53.133Z,100619.84
2022-09-23T22:30:19.507Z,100615.06
2022-09-23T22:32:45.866Z,100620.13
2022-09-23T22:35:14.280Z,100616.38
2022-09-23T22:37:42.384Z,100619.25
2022-09-23T22:40:11.419Z,100609.47
2022-09-23T22:42:37.933Z,100615.13
2022-09-23T22:45:05.357Z,100613.22
2022-09-23T22:47:32.656Z,100604.06
2022-09-23T22:49:59.081Z,100611.53
2022-09-23T22:52:25.553Z,100613.16
2022-09-23T22:54:53.238Z,100610.97
2022-09-23T22:57:19.922Z,100606.03
2022-09-23T22:59:46.613Z,100606.13
2022-09-23T23:02:13.827Z,100600.25
2022-09-23T23:04:40.256Z,100604.34
2022-09-23T23:07:06.637Z,100606.25
2022-09-23T23:09:32.970Z,100609.47
2022-09-23T23:12:01.328Z,100604.28
2022-09-23T23:14:27.665Z,100601.00
2022-09-23T23:16:54.013Z,100598.00
2022-09-23T23:19:20.544Z,100591.41
2022-09-23T23:21:46.915Z,100599.41
2022-09-23T23:24:15.490Z,100593.28
2022-09-23T23:26:42.264Z,100595.91
2022-09-23T23:29:11.581Z,100607.69
2022-09-23T23:31:38.478Z,100608.09
2022-09-23T23:34:04.986Z,100611.59
2022-09-23T23:36:31.341Z,100613.00
2022-09-23T23:38:57.679Z,100610.16
2022-09-23T23:41:24.195Z,100612.38
2022-09-23T23:43:54.947Z,100618.00
2022-09-23T23:46:23.887Z,100616.38
2022-09-23T23:48:50.554Z,100621.91
2022-09-23T23:51:16.882Z,100622.31
2022-09-23T23:53:43.607Z,100613.63
2022-09-23T23:56:11.375Z,100612.91
2022-09-23T23:58:38.565Z,100615.41
